Decatur, TN (37322)

9:40 AM EDT on September 03, 2015 (GMT -0400)
Bakewell | | Change Station
CLOSE
Current Station
Personal Weather Station
Location: Soddy Daisy, TN
Elevation: 764 ft
Nearby Weather Stations

Elev 764 ft 35.33 °N, 85.08 °W | Updated 6 seconds ago

Clear
Clear
72.7 °F
Feels Like 72.7 °F
N
0.0
Wind Variable Wind from NW
Gusts 0.0 mph

Today
High -- | Low -- °F
--% Chance of Precip.
Yesterday
High -- | Low -- °F
Precip. -- in
7:13 AM 8:04 PM
Waning Gibbous, 70% visible
Pressure 30.06 in
Visibility 10.0 miles
Clouds Clear
Dew Point 72 °F
Humidity 97%
Rainfall 0.00 in
Snow Depth Not available.
UV 3 out of 12
Pollen 9.70 out of 12
Air Quality Not available.
Flu Activity Not available.
METAR KMMI 031335Z AUTO 00000KT 10SM CLR 22/21 A3006 RMK
Pressure 30.06 in
Visibility 10.0 miles
Clouds Clear
Dew Point 72 °F
Humidity 97%
Rainfall 0.00 in
Snow Depth Not available.
UV 3 out of 12
Pollen 9.70 out of 12
Air Quality Not available.
Flu Activity Not available.
METAR KMMI 031335Z AUTO 00000KT 10SM CLR 22/21 A3006 RMK

10-Day Weather Forecast

×

Almanac

Astronomy

Sep. 03, 2015 Rise Set
Actual Time
Civil Twilight
Nautical Twilight
Astronomical Twilight
Moon
Length of Visible Light
Length of Day
Tomorrow will be .
, % of the Moon is Illuminated

Today's Extremes

State Highs State Lows

Community

WunderPhotos

Upload Photos

1,851,952 photos uploaded!

WunderBlogs® & News

Nearby

Air Quality

  Air Quality AQ Index Pollutant
Not available.

Snow Depth

Station Depth Elevation

Earthquake Activity

City Distance Mag. Time & Date
Minimum magnitude displayed is 2.5.

Coastal Water Temperatures

Place Temperature

Stations

Nearby Weather Stations

Station Location Temp. Windchill Dew Point Humidity Wind Precip. Elev Updated Type